الصفحة الرئيسية
METAR-TAF:

METAR-TAF

مطار :

Narathiwat, تايلاند

دائرة عرض: 6-31-12N, خط طول: 101-44-36E, ارتفاع: 5 متر

مراقبة الطقس الحالي

تاريخ ووقت الإصدار 59 دقيقة قبل الساعة 01:00UTC
ريح 5 عقدة من الجنوب
درجة الحرارة 25°درجة مئوية
الرطوبة 94%
ضغط 1011 hPa
الرؤية 10 كم أو أكثر
غيوم قليلة على ارتفاع 1800 قدم

METAR: VTSC 040100Z 18005KT 9999 FEW018 25/24 Q1011 NOSIG

زمن: 08:59 (01:59 UTC)

توقعات

تاريخ ووقت الإصدار 2ساعات و 59 دقيقة قبل الساعة 23:00UTC
التوقعات صالحة من04 الساعة 00 UTC إلى 04 الساعة 24 UTC
ريح 5 عقدة من الجنوب
الرؤية 10 كم أو أكثر
غيوم قليلة على ارتفاع 2000 قدم
غيوم متفرقة على ارتفاع 10000 قدم
مؤقت
من 04 الساعة 08 UTC إلى 04 الساعة 14 UTC
ريح 10 عقدة من الغرب تتزايد حتى 20 عقدة
الرؤية: 5000 متر
غيوم قليلة على ارتفاع 1600 قدم, مزنة ركامية.
غيوم متفرقة على ارتفاع 1800 قدم
غيوم مفككة على ارتفاع 10000 قدم
عاصفة رعدية, مطر

TAF: VTSC 032300Z 0400/0424 19005KT 9999 FEW020 SCT100 TEMPO 0408/0414 27010G20KT 5000 TSRA FEW016CB SCT018 BKN100

أرصاد الطقس والتوقعات من أكثر من 4000 مطار (تقارير الطقس للمطار METAR والتنبؤ بالطقس بالمطارTAF).

المحطات المتاحة هي النقط الصفراء والحمراء على الخريطة.

حرك المؤشر فوق النقطة لمعرفة اسم المحطة.

ثم انقر لمعرفة أرصاد وتوقعات الطقس.

لتغيير الخارطة: اضغط على الأزرار الخضراء مع رمز الصليب الأسود للتكبير. على الزر الأخضر مع شرطة للتصغير، أو على الأسهم الخضراء للخرائط المجاورة.


METAR-TAF: